Time;durP1;ratioP1;P1;durP2;ratioP2;P2;SDS_P1;SDS_P2;PMS_P1;PMS_P2;Temp;Humidity;BMP_temperature;BMP_pressure;BME280_temperature;BME280_humidity;BME280_pressure;Samples;Min_cycle;Max_cycle;Signal;HPM_P1;HPM_P2
2022/07/31 00:01:57;;;;;;;6.77;3.33;;;;;21.20;101275.00;;;;4924395;29;20302;-73
2022/07/31 00:04:43;;;;;;;6.30;2.90;;;;;21.10;101280.00;;;;4927850;29;20247;-72
2022/07/31 00:07:29;;;;;;;3.73;2.73;;;;;20.90;101265.00;;;;4927604;28;20235;-73
2022/07/31 00:10:16;;;;;;;5.33;3.00;;;;;20.80;101269.00;;;;4924476;29;20249;-74
2022/07/31 00:13:02;;;;;;;3.00;2.70;;;;;20.70;101268.00;;;;4928448;28;20247;-72
2022/07/31 00:15:50;;;;;;;7.03;3.20;;;;;20.60;101266.00;;;;4936415;28;20281;-73
2022/07/31 00:18:36;;;;;;;3.50;3.17;;;;;20.40;101269.00;;;;4925368;28;20393;-73
2022/07/31 00:21:23;;;;;;;6.17;3.10;;;;;20.30;101270.00;;;;4923476;29;20757;-72
2022/07/31 00:24:09;;;;;;;3.63;3.20;;;;;20.30;101265.00;;;;4923357;29;20761;-71
2022/07/31 00:26:56;;;;;;;3.57;3.27;;;;;20.10;101263.00;;;;4925726;29;20229;-72
2022/07/31 00:29:42;;;;;;;3.80;3.07;;;;;20.10;101260.00;;;;4928202;29;20414;-73
2022/07/31 00:32:30;;;;;;;4.90;3.60;;;;;20.00;101257.00;;;;4930724;29;20286;-71
2022/07/31 00:35:17;;;;;;;3.87;3.10;;;;;19.90;101254.00;;;;4929197;28;20279;-72
2022/07/31 00:38:03;;;;;;;5.33;3.20;;;;;19.80;101255.00;;;;4922747;29;20304;-73
2022/07/31 00:41:09;;;;;;;3.57;3.10;;;;;19.70;101256.00;;;;4921843;28;20248;-72
2022/07/31 00:43:55;;;;;;;5.07;3.40;;;;;19.60;101259.00;;;;4927993;29;20244;-71
2022/07/31 00:46:43;;;;;;;3.40;3.10;;;;;19.50;101257.00;;;;4929901;29;20236;-72
2022/07/31 00:49:31;;;;;;;3.80;3.03;;;;;19.40;101246.00;;;;4923181;29;20268;-72
2022/07/31 00:52:24;;;;;;;5.43;3.17;;;;;19.30;101249.00;;;;4915885;29;20232;-73
2022/07/31 00:55:10;;;;;;;5.33;3.57;;;;;19.20;101243.00;;;;4925350;29;20280;-72
2022/07/31 00:57:57;;;;;;;4.60;3.43;;;;;19.10;101236.00;;;;4933770;28;20275;-74
2022/07/31 01:00:43;;;;;;;4.77;3.27;;;;;19.10;101239.00;;;;4930812;28;20307;-72
2022/07/31 01:03:31;;;;;;;5.40;3.40;;;;;19.10;101238.00;;;;4919134;29;20253;-72
2022/07/31 01:06:18;;;;;;;6.57;3.47;;;;;19.00;101229.00;;;;4928279;29;20631;-73
2022/07/31 01:09:05;;;;;;;5.30;3.10;;;;;18.90;101233.00;;;;4921834;29;20745;-73
2022/07/31 01:12:05;;;;;;;4.37;3.30;;;;;18.90;101235.00;;;;4928769;28;20240;-73
2022/07/31 01:14:54;;;;;;;3.27;2.97;;;;;18.90;101230.00;;;;4925790;28;20232;-73
2022/07/31 01:17:44;;;;;;;5.20;3.10;;;;;18.70;101244.00;;;;4927706;29;20232;-72
2022/07/31 01:20:31;;;;;;;4.43;3.50;;;;;18.70;101236.00;;;;4925008;29;20241;-74
2022/07/31 01:23:35;;;;;;;5.03;3.57;;;;;18.70;101235.00;;;;4925357;29;20228;-74
2022/07/31 01:26:34;;;;;;;3.87;3.10;;;;;18.60;101225.00;;;;4921130;29;20376;-73
2022/07/31 01:29:25;;;;;;;4.57;3.60;;;;;18.50;101228.00;;;;4923248;29;20233;-73
2022/07/31 01:32:16;;;;;;;3.80;3.40;;;;;18.50;101229.00;;;;4927289;28;20237;-74
2022/07/31 01:35:06;;;;;;;5.20;3.40;;;;;18.30;101231.00;;;;4925927;28;20312;-73
2022/07/31 01:37:55;;;;;;;3.53;3.23;;;;;18.30;101227.00;;;;4924280;29;20333;-73
2022/07/31 01:40:46;;;;;;;5.00;3.77;;;;;18.30;101217.00;;;;4924347;29;20244;-72
2022/07/31 01:43:36;;;;;;;3.77;3.43;;;;;18.40;101214.00;;;;4918483;29;20879;-72
2022/07/31 01:46:27;;;;;;;4.20;3.80;;;;;18.30;101213.00;;;;4927598;28;20312;-72
2022/07/31 01:49:15;;;;;;;6.23;3.40;;;;;18.20;101214.00;;;;4926614;29;20293;-72
2022/07/31 01:52:04;;;;;;;3.73;3.37;;;;;18.10;101202.00;;;;4925307;28;20280;-72
2022/07/31 01:54:53;;;;;;;6.10;3.50;;;;;18.20;101198.00;;;;4925800;29;20229;-72
2022/07/31 01:57:42;;;;;;;3.37;3.07;;;;;18.20;101201.00;;;;4926929;28;20365;-70
2022/07/31 02:00:29;;;;;;;4.80;3.10;;;;;18.00;101201.00;;;;4931645;28;20784;-72
2022/07/31 02:03:23;;;;;;;6.40;3.40;;;;;18.00;101201.00;;;;4927054;28;20304;-71
2022/07/31 02:06:30;;;;;;;4.87;3.53;;;;;17.90;101210.00;;;;4937490;28;20273;-71
2022/07/31 02:09:18;;;;;;;4.37;3.67;;;;;17.90;101202.00;;;;4927384;29;20236;-73
2022/07/31 02:12:06;;;;;;;3.73;3.43;;;;;17.80;101197.00;;;;4926257;29;20724;-73
2022/07/31 02:14:56;;;;;;;4.77;3.60;;;;;17.90;101195.00;;;;4934395;28;20974;-72
2022/07/31 02:17:46;;;;;;;4.00;3.53;;;;;17.70;101191.00;;;;4931966;28;20324;-72
2022/07/31 02:20:34;;;;;;;3.97;3.43;;;;;17.70;101179.00;;;;4929639;28;20243;-73
2022/07/31 02:23:20;;;;;;;6.73;3.50;;;;;17.70;101184.00;;;;4926379;29;20628;-74
2022/07/31 02:26:07;;;;;;;3.80;3.40;;;;;17.60;101179.00;;;;4937378;28;20240;-72
2022/07/31 02:28:54;;;;;;;4.20;3.67;;;;;17.60;101186.00;;;;4931632;29;20232;-69
2022/07/31 02:31:43;;;;;;;4.80;3.63;;;;;17.50;101171.00;;;;4922573;29;20262;-71
2022/07/31 02:34:31;;;;;;;5.80;3.60;;;;;17.60;101178.00;;;;4931477;28;20314;-72
2022/07/31 02:37:19;;;;;;;4.03;3.63;;;;;17.50;101160.00;;;;4929748;28;20239;-72
2022/07/31 02:40:11;;;;;;;3.93;3.23;;;;;17.50;101163.00;;;;4935641;28;20239;-71
2022/07/31 02:42:57;;;;;;;5.10;3.70;;;;;17.50;101168.00;;;;4923890;29;20246;-72
2022/07/31 02:45:44;;;;;;;3.93;3.63;;;;;17.50;101166.00;;;;4917989;29;20837;-72
2022/07/31 02:48:31;;;;;;;5.77;3.50;;;;;17.50;101164.00;;;;4928451;28;20234;-72
2022/07/31 02:51:18;;;;;;;4.60;3.50;;;;;17.50;101161.00;;;;4923642;29;20301;-69
2022/07/31 02:54:06;;;;;;;4.57;3.90;;;;;17.50;101154.00;;;;4928654;28;20751;-70
2022/07/31 02:56:53;;;;;;;5.63;3.73;;;;;17.40;101156.00;;;;4934460;28;20365;-71
2022/07/31 02:59:40;;;;;;;3.97;3.57;;;;;17.40;101155.00;;;;4925445;29;20248;-73
2022/07/31 03:02:26;;;;;;;4.40;3.53;;;;;17.40;101162.00;;;;4930791;29;20244;-72
2022/07/31 03:05:23;;;;;;;5.17;3.77;;;;;17.40;101148.00;;;;4925148;28;20811;-72
2022/07/31 03:08:09;;;;;;;5.43;3.60;;;;;17.40;101149.00;;;;4930414;29;20244;-73
2022/07/31 03:10:57;;;;;;;5.47;3.50;;;;;17.40;101146.00;;;;4928962;29;20240;-72
2022/07/31 03:13:45;;;;;;;4.07;3.63;;;;;17.40;101153.00;;;;4928103;28;20241;-73
2022/07/31 03:16:32;;;;;;;4.37;3.57;;;;;17.40;101143.00;;;;4933188;28;20676;-72
2022/07/31 03:19:20;;;;;;;4.13;3.67;;;;;17.40;101138.00;;;;4923221;29;20738;-73
2022/07/31 03:22:08;;;;;;;5.83;3.73;;;;;17.40;101147.00;;;;4926857;29;20243;-72
2022/07/31 03:25:02;;;;;;;4.13;3.20;;;;;17.50;101146.00;;;;4930005;29;20236;-74
2022/07/31 03:27:50;;;;;;;4.50;3.50;;;;;17.40;101145.00;;;;4923959;28;20233;-72
2022/07/31 03:30:42;;;;;;;6.07;3.60;;;;;17.50;101136.00;;;;4929280;29;21045;-71
2022/07/31 03:33:28;;;;;;;6.37;3.67;;;;;17.50;101138.00;;;;4936860;28;20825;-74
2022/07/31 03:36:15;;;;;;;3.60;3.30;;;;;17.50;101141.00;;;;4928752;29;20623;-72
2022/07/31 03:39:01;;;;;;;4.63;3.90;;;;;17.60;101140.00;;;;4927734;28;20232;-71
2022/07/31 03:41:49;;;;;;;4.43;3.50;;;;;17.50;101138.00;;;;4929574;28;20233;-72
2022/07/31 03:44:38;;;;;;;5.00;3.67;;;;;17.60;101140.00;;;;4929789;29;20232;-70
2022/07/31 03:47:25;;;;;;;3.80;3.30;;;;;17.50;101136.00;;;;4924460;29;20225;-73
2022/07/31 03:50:11;;;;;;;7.57;4.10;;;;;17.50;101130.00;;;;4928803;29;20292;-72
2022/07/31 03:52:58;;;;;;;5.93;3.53;;;;;17.60;101144.00;;;;4937398;28;20225;-72
2022/07/31 03:55:45;;;;;;;3.60;3.30;;;;;17.50;101127.00;;;;4939140;28;20280;-70
2022/07/31 03:58:31;;;;;;;3.67;3.30;;;;;17.60;101126.00;;;;4918965;28;20869;-71
2022/07/31 04:01:21;;;;;;;4.83;3.67;;;;;17.70;101128.00;;;;4928480;28;20329;-74
2022/07/31 04:04:09;;;;;;;5.23;3.40;;;;;17.60;101127.00;;;;4926804;29;20248;-72
2022/07/31 04:06:56;;;;;;;3.90;3.50;;;;;17.60;101126.00;;;;4927120;29;20330;-72
2022/07/31 04:09:42;;;;;;;5.23;3.80;;;;;17.60;101120.00;;;;4918086;29;20370;-73
2022/07/31 04:12:29;;;;;;;5.23;3.60;;;;;17.60;101111.00;;;;4930482;28;20298;-72
2022/07/31 04:15:15;;;;;;;4.60;4.00;;;;;17.70;101121.00;;;;4930254;28;20228;-72
2022/07/31 04:18:02;;;;;;;5.33;3.80;;;;;17.80;101121.00;;;;4928333;29;20231;-73
2022/07/31 04:20:49;;;;;;;5.00;3.87;;;;;17.80;101123.00;;;;4925080;29;20272;-70
2022/07/31 04:23:35;;;;;;;4.03;3.67;;;;;17.80;101119.00;;;;4928721;29;20734;-71
2022/07/31 04:26:21;;;;;;;5.00;3.57;;;;;17.90;101119.00;;;;4929007;29;20252;-72
2022/07/31 04:29:11;;;;;;;5.43;3.70;;;;;17.90;101119.00;;;;4926955;29;20249;-71
2022/07/31 04:31:57;;;;;;;6.67;3.90;;;;;18.10;101132.00;;;;4935868;28;20236;-70
2022/07/31 04:34:45;;;;;;;5.70;3.57;;;;;18.10;101122.00;;;;4926199;29;20241;-71
2022/07/31 04:37:32;;;;;;;4.43;3.57;;;;;18.00;101115.00;;;;4938505;28;20713;-72
2022/07/31 04:40:18;;;;;;;4.10;3.70;;;;;18.00;101119.00;;;;4927015;29;20842;-72
2022/07/31 04:43:04;;;;;;;3.93;3.53;;;;;18.20;101117.00;;;;4931273;28;20240;-71
2022/07/31 04:45:51;;;;;;;3.97;3.47;;;;;18.20;101122.00;;;;4931423;28;20235;-70
2022/07/31 04:48:37;;;;;;;4.70;3.57;;;;;18.10;101122.00;;;;4928642;29;20718;-72
2022/07/31 04:51:27;;;;;;;5.33;3.60;;;;;18.20;101092.00;;;;4922489;29;20721;-72
2022/07/31 04:54:13;;;;;;;4.43;3.60;;;;;18.10;101119.00;;;;4916115;28;20380;-72
2022/07/31 04:56:59;;;;;;;4.73;3.93;;;;;18.10;101119.00;;;;4922300;29;20314;-72
2022/07/31 04:59:46;;;;;;;5.47;3.50;;;;;18.20;101132.00;;;;4918340;29;20250;-72
2022/07/31 05:02:46;;;;;;;3.90;3.50;;;;;18.20;101128.00;;;;4934026;28;20288;-73
2022/07/31 05:05:32;;;;;;;4.67;3.87;;;;;18.20;101128.00;;;;4932789;28;20772;-72
2022/07/31 05:08:20;;;;;;;4.67;3.60;;;;;18.30;101127.00;;;;4927722;28;20388;-71
2022/07/31 05:11:22;;;;;;;6.87;4.00;;;;;18.30;101116.00;;;;4935260;28;20241;-72
2022/07/31 05:14:10;;;;;;;5.37;4.10;;;;;18.40;101125.00;;;;4930504;28;20228;-73
2022/07/31 05:16:56;;;;;;;11.07;5.20;;;;;18.40;101122.00;;;;4925302;29;20240;-72
2022/07/31 05:19:42;;;;;;;5.83;4.00;;;;;18.30;101119.00;;;;4927924;29;20280;-74
2022/07/31 05:22:28;;;;;;;4.97;4.30;;;;;18.30;101116.00;;;;4915248;28;20233;-73
2022/07/31 05:25:16;;;;;;;4.63;4.23;;;;;18.30;101115.00;;;;4933650;28;20231;-71
2022/07/31 05:28:02;;;;;;;4.33;3.90;;;;;18.30;101127.00;;;;4924403;29;20368;-72
2022/07/31 05:30:55;;;;;;;5.27;3.57;;;;;18.40;101119.00;;;;4927470;29;20300;-72
2022/07/31 05:33:42;;;;;;;4.47;4.07;;;;;18.40;101111.00;;;;4912847;29;20252;-74
2022/07/31 05:36:28;;;;;;;5.87;3.97;;;;;18.40;101109.00;;;;4924547;28;20273;-72
2022/07/31 05:39:16;;;;;;;6.27;3.90;;;;;18.40;101118.00;;;;4928509;29;20256;-72
2022/07/31 05:42:04;;;;;;;4.27;3.87;;;;;18.40;101127.00;;;;4926099;29;20312;-73
2022/07/31 05:44:51;;;;;;;6.37;5.13;;;;;18.50;101127.00;;;;4924496;29;20245;-73
2022/07/31 05:47:38;;;;;;;4.50;4.10;;;;;18.50;101134.00;;;;4925616;28;20233;-71
2022/07/31 05:50:26;;;;;;;4.97;4.07;;;;;18.60;101126.00;;;;4922248;29;20236;-71
2022/07/31 05:53:14;;;;;;;5.17;3.87;;;;;18.60;101122.00;;;;4930634;28;20324;-71
2022/07/31 05:56:00;;;;;;;5.90;4.20;;;;;18.70;101121.00;;;;4926639;29;20241;-71
2022/07/31 05:58:48;;;;;;;5.27;4.30;;;;;18.90;101127.00;;;;4927480;29;20237;-72
2022/07/31 06:01:34;;;;;;;5.03;3.70;;;;;19.00;101129.00;;;;4930873;28;20288;-69
2022/07/31 06:04:20;;;;;;;5.73;4.13;;;;;19.10;101120.00;;;;4913905;29;20239;-70
2022/07/31 06:07:07;;;;;;;4.47;3.90;;;;;19.30;101120.00;;;;4928508;28;20288;-71
2022/07/31 06:09:53;;;;;;;4.67;4.17;;;;;19.30;101117.00;;;;4922554;29;20365;-72
2022/07/31 06:12:39;;;;;;;12.37;4.77;;;;;19.40;101107.00;;;;4926856;29;20709;-74
2022/07/31 06:15:27;;;;;;;4.40;3.80;;;;;19.50;101112.00;;;;4921647;29;20225;-73
2022/07/31 06:18:19;;;;;;;10.50;5.30;;;;;19.70;101121.00;;;;4918869;29;20252;-73
2022/07/31 06:21:05;;;;;;;7.90;4.77;;;;;19.80;101123.00;;;;4925614;29;20252;-73
2022/07/31 06:23:51;;;;;;;5.83;4.60;;;;;20.00;101116.00;;;;4932467;28;20372;-75
2022/07/31 06:26:38;;;;;;;4.90;4.40;;;;;20.10;101115.00;;;;4930385;28;20240;-75
2022/07/31 06:29:24;;;;;;;9.73;5.10;;;;;20.20;101117.00;;;;4931016;28;20750;-75
2022/07/31 06:32:28;;;;;;;8.60;5.23;;;;;20.40;101110.00;;;;4921486;29;20257;-74
2022/07/31 06:35:14;;;;;;;8.23;4.53;;;;;20.50;101114.00;;;;4917809;29;20232;-74
2022/07/31 06:38:00;;;;;;;14.70;5.77;;;;;20.60;101111.00;;;;4921795;29;20633;-74
2022/07/31 06:40:47;;;;;;;7.90;5.20;;;;;20.70;101114.00;;;;4921453;28;20746;-74
2022/07/31 06:43:33;;;;;;;7.83;5.57;;;;;20.70;101117.00;;;;4926862;29;20730;-75
2022/07/31 06:46:20;;;;;;;6.73;5.13;;;;;20.80;101103.00;;;;4925197;29;20233;-75
2022/07/31 06:49:08;;;;;;;7.33;5.40;;;;;20.90;101112.00;;;;4927615;29;20273;-75
2022/07/31 06:51:54;;;;;;;8.90;5.80;;;;;21.00;101110.00;;;;4928440;28;20308;-76
2022/07/31 06:54:41;;;;;;;7.00;5.50;;;;;21.00;101112.00;;;;4930390;29;20315;-75
2022/07/31 06:57:28;;;;;;;8.87;5.40;;;;;21.10;101105.00;;;;4925537;29;20233;-75
2022/07/31 07:00:15;;;;;;;7.47;5.53;;;;;21.10;101111.00;;;;4919191;29;20308;-74
2022/07/31 07:03:05;;;;;;;8.00;6.27;;;;;21.10;101111.00;;;;4930270;29;20237;-75
2022/07/31 07:05:53;;;;;;;7.47;5.10;;;;;21.20;101104.00;;;;4927721;29;20285;-74
2022/07/31 07:08:40;;;;;;;9.23;5.63;;;;;21.20;101110.00;;;;4924840;28;20240;-75
2022/07/31 07:11:26;;;;;;;11.43;6.33;;;;;21.30;101112.00;;;;4927500;29;20237;-75
2022/07/31 07:14:13;;;;;;;13.30;6.20;;;;;21.40;101099.00;;;;4934384;28;20252;-76
2022/07/31 07:17:03;;;;;;;11.83;6.10;;;;;21.40;101103.00;;;;4920170;29;20613;-75
2022/07/31 07:19:49;;;;;;;10.47;6.50;;;;;21.60;101110.00;;;;4928797;28;20248;-75
2022/07/31 07:22:42;;;;;;;8.33;6.50;;;;;21.60;101119.00;;;;4929923;29;20234;-72
2022/07/31 07:25:28;;;;;;;8.00;6.50;;;;;21.70;101114.00;;;;4926914;29;20245;-75
2022/07/31 07:28:15;;;;;;;10.43;6.27;;;;;21.80;101107.00;;;;4928397;29;20364;-76
2022/07/31 07:31:15;;;;;;;13.17;7.03;;;;;22.00;101099.00;;;;4931563;28;20721;-75
2022/07/31 07:34:04;;;;;;;11.33;6.73;;;;;21.80;101093.00;;;;4924128;29;20239;-76
2022/07/31 07:36:51;;;;;;;13.90;7.33;;;;;21.90;101091.00;;;;4928662;29;20238;-74
2022/07/31 07:39:38;;;;;;;14.83;7.37;;;;;21.80;101093.00;;;;4927263;28;20238;-74
2022/07/31 07:42:25;;;;;;;13.07;7.10;;;;;21.80;101099.00;;;;4928358;29;20339;-74
2022/07/31 07:45:12;;;;;;;13.97;7.20;;;;;21.90;101088.00;;;;4931690;28;20241;-75
2022/07/31 07:47:59;;;;;;;10.33;6.63;;;;;21.90;101081.00;;;;4929853;28;20408;-74
2022/07/31 07:50:52;;;;;;;11.07;7.23;;;;;21.90;101083.00;;;;4924257;29;20238;-75
2022/07/31 07:53:39;;;;;;;10.97;7.67;;;;;22.10;101080.00;;;;4925997;29;20232;-74
2022/07/31 07:56:26;;;;;;;11.03;8.00;;;;;22.00;101099.00;;;;4926225;29;20728;-74
2022/07/31 07:59:13;;;;;;;10.47;7.17;;;;;22.00;101080.00;;;;4922663;29;20275;-75
2022/07/31 08:02:00;;;;;;;16.90;8.80;;;;;22.10;101077.00;;;;4930468;29;20238;-75
2022/07/31 08:04:47;;;;;;;13.70;8.10;;;;;22.00;101079.00;;;;4926325;29;20291;-75
2022/07/31 08:07:36;;;;;;;14.80;8.10;;;;;21.90;101086.00;;;;4925722;29;20279;-75
2022/07/31 08:10:28;;;;;;;12.03;7.80;;;;;22.00;101077.00;;;;4926220;29;20241;-74
2022/07/31 08:13:16;;;;;;;15.57;7.70;;;;;22.00;101076.00;;;;4927659;29;20243;-75
2022/07/31 08:16:02;;;;;;;12.63;8.13;;;;;22.00;101078.00;;;;4926068;29;20234;-75
2022/07/31 08:18:50;;;;;;;13.73;7.77;;;;;22.00;101080.00;;;;4925095;29;20232;-75
2022/07/31 08:21:38;;;;;;;12.27;7.30;;;;;22.30;101072.00;;;;4926296;29;20840;-75
2022/07/31 08:24:24;;;;;;;14.40;7.30;;;;;22.30;101079.00;;;;4929615;28;20257;-74
2022/07/31 08:30:27;;;;;;;8.40;5.67;;;;;22.20;101080.00;;;;4926997;29;20361;-72
2022/07/31 08:33:16;;;;;;;7.90;5.87;;;;;22.20;101090.00;;;;4927766;29;20242;-74
2022/07/31 08:36:03;;;;;;;8.60;6.47;;;;;22.30;101082.00;;;;4931872;28;20229;-74
2022/07/31 08:38:50;;;;;;;7.90;5.73;;;;;22.10;101081.00;;;;4926229;28;20333;-75
2022/07/31 08:41:39;;;;;;;8.53;5.53;;;;;22.10;101086.00;;;;4923690;28;20238;-74
2022/07/31 08:44:25;;;;;;;9.80;5.70;;;;;22.10;101088.00;;;;4924610;29;20893;-74
2022/07/31 08:47:18;;;;;;;12.50;5.63;;;;;22.10;101091.00;;;;4929713;28;20235;-74
2022/07/31 08:50:05;;;;;;;12.20;6.90;;;;;22.10;101099.00;;;;4926072;29;20279;-73
2022/07/31 08:52:55;;;;;;;7.10;4.97;;;;;22.10;101092.00;;;;4928561;28;20281;-74
2022/07/31 08:55:43;;;;;;;13.40;5.23;;;;;22.10;101086.00;;;;4928310;28;20706;-75
2022/07/31 08:58:44;;;;;;;9.27;4.97;;;;;22.20;101092.00;;;;4923264;29;20722;-76
2022/07/31 09:01:32;;;;;;;10.10;5.10;;;;;22.40;101092.00;;;;4927892;29;20284;-73
2022/07/31 09:04:20;;;;;;;7.03;5.10;;;;;22.60;101096.00;;;;4928297;29;20867;-73
2022/07/31 09:07:10;;;;;;;8.57;5.33;;;;;22.60;101089.00;;;;4920895;29;20252;-74
2022/07/31 09:09:57;;;;;;;6.47;4.43;;;;;22.70;101082.00;;;;4920973;28;20235;-74
2022/07/31 09:12:43;;;;;;;6.30;4.10;;;;;22.80;101087.00;;;;4924462;28;20235;-74
2022/07/31 09:15:30;;;;;;;5.27;4.07;;;;;22.90;101094.00;;;;4924612;29;20243;-74
2022/07/31 09:18:18;;;;;;;5.83;3.87;;;;;22.90;101077.00;;;;4925724;29;21073;-76
2022/07/31 09:21:07;;;;;;;4.93;3.80;;;;;23.10;101074.00;;;;4922775;29;20239;-75
2022/07/31 09:23:54;;;;;;;5.67;3.60;;;;;23.00;101088.00;;;;4923528;29;20245;-75
2022/07/31 09:26:40;;;;;;;6.50;4.13;;;;;22.90;101088.00;;;;4921169;29;20248;-75
2022/07/31 09:29:33;;;;;;;6.30;4.10;;;;;22.70;101089.00;;;;4926413;29;20234;-76
2022/07/31 09:32:20;;;;;;;7.63;5.00;;;;;22.70;101085.00;;;;4919011;29;20720;-73
2022/07/31 09:35:12;;;;;;;7.63;4.13;;;;;22.80;101078.00;;;;4924979;29;20236;-73
2022/07/31 09:38:00;;;;;;;6.37;4.07;;;;;22.90;101093.00;;;;4922194;29;20229;-74
2022/07/31 09:40:49;;;;;;;5.87;4.17;;;;;22.90;101087.00;;;;4923529;29;21001;-72
2022/07/31 09:43:43;;;;;;;5.60;4.23;;;;;23.10;101093.00;;;;4919845;29;20272;-75
2022/07/31 09:46:41;;;;;;;5.60;4.73;;;;;23.00;101099.00;;;;4920596;29;20299;-74
2022/07/31 09:49:31;;;;;;;5.73;4.50;;;;;23.00;101092.00;;;;4919042;29;20235;-74
2022/07/31 09:52:18;;;;;;;7.50;5.13;;;;;23.00;101087.00;;;;4921945;29;20264;-74
2022/07/31 09:55:07;;;;;;;10.40;5.50;;;;;23.00;101088.00;;;;4918469;28;20310;-75
2022/07/31 09:58:01;;;;;;;6.60;5.63;;;;;23.20;101086.00;;;;4923766;29;20733;-75
2022/07/31 10:00:51;;;;;;;7.37;5.20;;;;;23.10;101090.00;;;;4925159;29;20750;-74
2022/07/31 10:03:40;;;;;;;7.73;4.87;;;;;23.20;101084.00;;;;4925913;28;20232;-74
2022/07/31 10:06:28;;;;;;;6.80;5.10;;;;;23.20;101081.00;;;;4925144;28;20237;-75
2022/07/31 10:09:17;;;;;;;8.53;5.93;;;;;23.20;101090.00;;;;4910024;29;20322;-75
2022/07/31 10:12:06;;;;;;;8.83;6.07;;;;;23.30;101091.00;;;;4923449;29;20341;-74
2022/07/31 10:14:55;;;;;;;8.33;6.20;;;;;23.40;101080.00;;;;4926649;28;20236;-75
2022/07/31 10:17:45;;;;;;;8.10;6.73;;;;;23.30;101088.00;;;;4919716;29;20306;-74
2022/07/31 10:20:34;;;;;;;7.57;5.83;;;;;23.30;101092.00;;;;4926666;28;20248;-76
2022/07/31 10:23:24;;;;;;;8.63;6.07;;;;;23.30;101078.00;;;;4923457;29;20246;-76
2022/07/31 10:26:10;;;;;;;6.87;5.93;;;;;23.40;101083.00;;;;4924208;29;20406;-75
2022/07/31 10:28:58;;;;;;;8.00;6.70;;;;;23.50;101078.00;;;;4927269;29;20241;-74
2022/07/31 10:31:45;;;;;;;6.60;5.90;;;;;23.50;101081.00;;;;4929140;28;20236;-77
2022/07/31 10:34:33;;;;;;;8.10;6.23;;;;;23.50;101072.00;;;;4931867;29;20797;-77
2022/07/31 10:37:23;;;;;;;8.77;6.50;;;;;23.60;101069.00;;;;4931116;28;20233;-75
2022/07/31 10:40:18;;;;;;;7.23;6.20;;;;;23.90;101072.00;;;;4919812;29;20237;-71
2022/07/31 10:43:19;;;;;;;8.73;6.63;;;;;24.60;101066.00;;;;4921383;29;20236;-75
2022/07/31 10:46:06;;;;;;;6.30;5.70;;;;;24.80;101066.00;;;;4932571;28;20248;-74
2022/07/31 10:48:53;;;;;;;8.00;5.70;;;;;24.90;101055.00;;;;4929775;28;20237;-74
2022/07/31 10:51:46;;;;;;;7.00;5.97;;;;;24.80;101053.00;;;;4924310;28;20237;-74
2022/07/31 10:54:39;;;;;;;8.47;6.20;;;;;24.90;101050.00;;;;4934508;28;20233;-72
2022/07/31 10:57:27;;;;;;;8.27;5.80;;;;;24.90;101048.00;;;;4925285;29;20847;-75
2022/07/31 11:00:16;;;;;;;7.03;6.00;;;;;24.80;101051.00;;;;4923589;29;21060;-74
2022/07/31 11:03:14;;;;;;;6.90;4.93;;;;;24.70;101050.00;;;;4935004;28;20284;-72
2022/07/31 11:06:00;;;;;;;6.57;5.27;;;;;24.80;101050.00;;;;4923520;29;20248;-71
2022/07/31 11:08:51;;;;;;;7.50;5.40;;;;;24.80;101043.00;;;;4929738;28;20309;-71
2022/07/31 11:11:37;;;;;;;7.17;4.83;;;;;24.70;101039.00;;;;4922982;29;20792;-74
2022/07/31 11:14:34;;;;;;;5.40;4.50;;;;;24.70;101046.00;;;;4926385;29;20409;-70
2022/07/31 11:17:31;;;;;;;5.37;4.00;;;;;24.40;101050.00;;;;4925843;29;20236;-69
2022/07/31 11:20:38;;;;;;;5.63;4.17;;;;;24.60;101047.00;;;;4925314;29;20240;-71
2022/07/31 11:23:29;;;;;;;6.57;3.67;;;;;24.50;101042.00;;;;4934693;28;20668;-69
2022/07/31 11:26:17;;;;;;;7.20;3.80;;;;;24.40;101047.00;;;;4933107;28;20244;-71
2022/07/31 11:29:29;;;;;;;4.87;3.90;;;;;24.40;101043.00;;;;4922178;29;20245;-72
2022/07/31 11:32:36;;;;;;;6.00;3.50;;;;;24.30;101044.00;;;;4924427;29;20240;-69
2022/07/31 11:35:31;;;;;;;5.67;4.33;;;;;24.40;101052.00;;;;4923675;29;20352;-72
2022/07/31 11:38:18;;;;;;;7.40;3.87;;;;;24.50;101049.00;;;;4921508;29;20236;-71
2022/07/31 11:41:06;;;;;;;4.23;3.50;;;;;24.40;101054.00;;;;4924214;28;20246;-69
2022/07/31 11:43:56;;;;;;;6.60;3.20;;;;;24.40;101051.00;;;;4915627;29;20232;-70
2022/07/31 11:46:42;;;;;;;5.07;3.60;;;;;24.30;101048.00;;;;4928850;28;20244;-74
2022/07/31 11:49:31;;;;;;;4.10;3.70;;;;;24.30;101058.00;;;;4924163;29;20328;-74
2022/07/31 11:52:34;;;;;;;6.37;3.83;;;;;24.30;101054.00;;;;4923464;29;20745;-74
2022/07/31 11:55:24;;;;;;;5.83;3.57;;;;;24.10;101051.00;;;;4925384;28;20910;-73
2022/07/31 11:58:10;;;;;;;4.60;3.73;;;;;24.20;101062.00;;;;4925871;29;20704;-73
2022/07/31 12:00:58;;;;;;;6.00;3.80;;;;;24.10;101047.00;;;;4924345;29;20332;-69
2022/07/31 12:03:46;;;;;;;6.07;3.70;;;;;24.10;101043.00;;;;4927771;28;20240;-70
2022/07/31 12:06:33;;;;;;;5.03;3.30;;;;;24.20;101042.00;;;;4938519;28;20243;-69
2022/07/31 12:09:22;;;;;;;7.90;4.07;;;;;24.40;101035.00;;;;4935143;28;20232;-71
2022/07/31 12:12:30;;;;;;;5.97;3.40;;;;;24.40;101032.00;;;;4926267;29;20245;-71
2022/07/31 12:15:19;;;;;;;6.90;3.97;;;;;24.70;101030.00;;;;4920840;28;20236;-70
2022/07/31 12:18:05;;;;;;;6.87;3.50;;;;;24.70;101023.00;;;;4929101;29;20225;-72
2022/07/31 12:20:53;;;;;;;4.17;3.50;;;;;24.90;101020.00;;;;4927819;29;20240;-70
2022/07/31 12:23:40;;;;;;;6.40;3.63;;;;;25.20;101025.00;;;;4928345;29;20354;-72
2022/07/31 12:26:29;;;;;;;5.37;4.07;;;;;25.60;101021.00;;;;4928695;28;20257;-72
2022/07/31 12:29:16;;;;;;;7.53;4.40;;;;;25.70;101016.00;;;;4928834;28;20237;-70
2022/07/31 12:32:04;;;;;;;5.40;3.87;;;;;25.80;101003.00;;;;4930095;28;20692;-72
2022/07/31 12:35:01;;;;;;;5.13;3.70;;;;;25.80;101017.00;;;;4927281;28;20322;-70
2022/07/31 12:37:49;;;;;;;6.67;3.90;;;;;25.60;101008.00;;;;4925748;28;20233;-72
2022/07/31 12:40:36;;;;;;;6.60;4.37;;;;;25.60;101016.00;;;;4926733;28;20308;-73
2022/07/31 12:43:23;;;;;;;7.13;4.03;;;;;25.60;101007.00;;;;4930275;28;20243;-73
2022/07/31 12:46:13;;;;;;;9.67;3.80;;;;;25.20;101008.00;;;;4929222;29;20261;-69
2022/07/31 12:49:00;;;;;;;7.30;4.00;;;;;25.20;101009.00;;;;4926544;28;20244;-71
2022/07/31 12:51:46;;;;;;;7.00;4.17;;;;;25.10;100999.00;;;;4926257;29;21061;-72
2022/07/31 12:54:33;;;;;;;5.47;4.27;;;;;25.00;100996.00;;;;4926826;29;20224;-69
2022/07/31 12:57:24;;;;;;;5.67;4.13;;;;;25.00;101000.00;;;;4924867;29;20224;-72
2022/07/31 13:00:11;;;;;;;4.03;3.40;;;;;25.30;100993.00;;;;4927140;29;20727;-71
2022/07/31 13:02:59;;;;;;;5.07;3.33;;;;;25.80;100996.00;;;;4929037;29;20233;-69
2022/07/31 13:05:46;;;;;;;3.60;3.30;;;;;25.50;100987.00;;;;4926935;29;20225;-71
2022/07/31 13:08:37;;;;;;;5.60;3.30;;;;;25.60;100986.00;;;;4926545;29;21588;-71
2022/07/31 13:11:24;;;;;;;4.63;3.30;;;;;25.80;100976.00;;;;4924033;28;20233;-69
2022/07/31 13:14:11;;;;;;;4.80;3.20;;;;;26.10;100970.00;;;;4926316;29;20798;-72
2022/07/31 13:16:58;;;;;;;5.97;3.63;;;;;26.30;100972.00;;;;4930381;28;20312;-72
2022/07/31 13:19:46;;;;;;;6.17;3.10;;;;;26.30;100971.00;;;;4925512;29;20769;-72
2022/07/31 13:22:33;;;;;;;4.37;3.67;;;;;26.20;100955.00;;;;4929346;28;20286;-73
2022/07/31 13:25:19;;;;;;;7.17;3.70;;;;;25.70;100960.00;;;;4925362;29;20240;-72
2022/07/31 13:28:06;;;;;;;6.43;3.50;;;;;25.30;100956.00;;;;4932934;28;20295;-73
2022/07/31 13:30:52;;;;;;;4.83;3.90;;;;;25.00;100965.00;;;;4926710;28;20314;-71
2022/07/31 13:33:40;;;;;;;4.33;3.93;;;;;24.80;100960.00;;;;4926908;29;20717;-71
2022/07/31 13:36:28;;;;;;;6.30;3.97;;;;;24.70;100964.00;;;;4925452;29;20301;-73
2022/07/31 13:39:21;;;;;;;6.77;4.00;;;;;24.70;100966.00;;;;4907912;28;20237;-71
2022/07/31 13:42:07;;;;;;;5.60;3.80;;;;;24.70;100956.00;;;;4918722;28;20242;-72
2022/07/31 13:44:55;;;;;;;5.07;3.20;;;;;25.00;100955.00;;;;4914314;29;20355;-70
2022/07/31 13:47:44;;;;;;;4.00;2.90;;;;;25.30;100963.00;;;;4921373;29;20259;-71
2022/07/31 13:50:38;;;;;;;4.77;3.50;;;;;25.60;100941.00;;;;4925087;29;20241;-73
2022/07/31 13:53:26;;;;;;;5.07;4.10;;;;;26.10;100942.00;;;;4925620;29;20653;-71
2022/07/31 13:56:12;;;;;;;6.67;4.37;;;;;26.10;100930.00;;;;4917665;29;20229;-72